Aviation Digital Data Service (ADDS)

Output produced by TAFs form (0014 UTC 25 November 2017)
found at http://www.aviationweather.gov/adds/tafs/
 
KRIC 242332Z 2500/2524 00000KT P6SM SKC 
     FM250900 21002KT P6SM SKC 
     FM251500 23007KT P6SM SKC